sensor_id;sensor_type;location;lat;lon;timestamp;temperature;humidity
5352;DHT22;2698;51.454;6.736;2022-08-02T00:02:24;16.80;99.90
5352;DHT22;2698;51.454;6.736;2022-08-02T00:04:51;16.80;99.90
5352;DHT22;2698;51.454;6.736;2022-08-02T00:07:19;16.70;99.90
5352;DHT22;2698;51.454;6.736;2022-08-02T00:09:46;16.60;99.90
5352;DHT22;2698;51.454;6.736;2022-08-02T00:12:13;16.60;99.90
5352;DHT22;2698;51.454;6.736;2022-08-02T00:14:39;16.60;99.90
5352;DHT22;2698;51.454;6.736;2022-08-02T00:17:06;16.70;99.90
5352;DHT22;2698;51.454;6.736;2022-08-02T00:19:33;16.60;99.90
5352;DHT22;2698;51.454;6.736;2022-08-02T00:22:00;16.60;99.90
5352;DHT22;2698;51.454;6.736;2022-08-02T00:24:28;16.60;99.90
5352;DHT22;2698;51.454;6.736;2022-08-02T00:26:55;16.60;99.90
5352;DHT22;2698;51.454;6.736;2022-08-02T00:29:23;16.60;99.90
5352;DHT22;2698;51.454;6.736;2022-08-02T00:31:52;16.60;99.90
5352;DHT22;2698;51.454;6.736;2022-08-02T00:34:19;16.60;99.90
5352;DHT22;2698;51.454;6.736;2022-08-02T00:36:46;16.60;99.90
5352;DHT22;2698;51.454;6.736;2022-08-02T00:39:13;16.60;99.90
5352;DHT22;2698;51.454;6.736;2022-08-02T00:41:45;16.70;99.90
5352;DHT22;2698;51.454;6.736;2022-08-02T00:44:14;16.60;99.90
5352;DHT22;2698;51.454;6.736;2022-08-02T00:46:41;16.70;99.90
5352;DHT22;2698;51.454;6.736;2022-08-02T00:49:09;16.70;99.90
5352;DHT22;2698;51.454;6.736;2022-08-02T00:51:36;16.70;99.90
5352;DHT22;2698;51.454;6.736;2022-08-02T00:54:05;16.70;99.90
5352;DHT22;2698;51.454;6.736;2022-08-02T00:56:38;16.70;99.90
5352;DHT22;2698;51.454;6.736;2022-08-02T00:59:09;16.70;99.90
5352;DHT22;2698;51.454;6.736;2022-08-02T01:01:38;16.70;99.90
5352;DHT22;2698;51.454;6.736;2022-08-02T01:04:06;16.70;99.90
5352;DHT22;2698;51.454;6.736;2022-08-02T01:06:34;16.60;99.90
5352;DHT22;2698;51.454;6.736;2022-08-02T01:09:02;16.60;99.90
5352;DHT22;2698;51.454;6.736;2022-08-02T01:11:30;16.70;99.90
5352;DHT22;2698;51.454;6.736;2022-08-02T01:14:03;16.70;99.90
5352;DHT22;2698;51.454;6.736;2022-08-02T01:16:37;16.60;99.90
5352;DHT22;2698;51.454;6.736;2022-08-02T01:19:14;16.60;99.90
5352;DHT22;2698;51.454;6.736;2022-08-02T01:21:53;16.50;99.90
5352;DHT22;2698;51.454;6.736;2022-08-02T01:24:40;16.50;99.90
5352;DHT22;2698;51.454;6.736;2022-08-02T01:27:19;16.50;99.90
5352;DHT22;2698;51.454;6.736;2022-08-02T01:29:55;16.50;99.90
5352;DHT22;2698;51.454;6.736;2022-08-02T01:32:28;16.50;99.90
5352;DHT22;2698;51.454;6.736;2022-08-02T01:35:00;16.60;99.90
5352;DHT22;2698;51.454;6.736;2022-08-02T01:37:31;16.50;99.90
5352;DHT22;2698;51.454;6.736;2022-08-02T01:40:02;16.60;99.90
5352;DHT22;2698;51.454;6.736;2022-08-02T01:42:31;16.60;99.90
5352;DHT22;2698;51.454;6.736;2022-08-02T01:45:00;16.60;99.90
5352;DHT22;2698;51.454;6.736;2022-08-02T01:47:30;16.50;99.90
5352;DHT22;2698;51.454;6.736;2022-08-02T01:50:00;16.50;99.90
5352;DHT22;2698;51.454;6.736;2022-08-02T01:52:30;16.40;99.90
5352;DHT22;2698;51.454;6.736;2022-08-02T01:55:00;16.40;99.90
5352;DHT22;2698;51.454;6.736;2022-08-02T01:57:31;16.50;99.90
5352;DHT22;2698;51.454;6.736;2022-08-02T02:00:03;16.50;99.90
5352;DHT22;2698;51.454;6.736;2022-08-02T02:02:31;16.50;99.90
5352;DHT22;2698;51.454;6.736;2022-08-02T02:05:01;16.40;99.90
5352;DHT22;2698;51.454;6.736;2022-08-02T02:07:29;16.40;99.90
5352;DHT22;2698;51.454;6.736;2022-08-02T02:09:57;16.40;99.90
5352;DHT22;2698;51.454;6.736;2022-08-02T02:12:26;16.20;99.90
5352;DHT22;2698;51.454;6.736;2022-08-02T02:14:54;16.10;99.90
5352;DHT22;2698;51.454;6.736;2022-08-02T02:17:25;16.10;99.90
5352;DHT22;2698;51.454;6.736;2022-08-02T02:19:54;16.20;99.90
5352;DHT22;2698;51.454;6.736;2022-08-02T02:22:23;16.10;99.90
5352;DHT22;2698;51.454;6.736;2022-08-02T02:24:50;16.00;99.90
5352;DHT22;2698;51.454;6.736;2022-08-02T02:27:18;16.00;99.90
5352;DHT22;2698;51.454;6.736;2022-08-02T02:29:49;15.90;99.90
5352;DHT22;2698;51.454;6.736;2022-08-02T02:32:17;15.90;99.90
5352;DHT22;2698;51.454;6.736;2022-08-02T02:34:48;15.90;99.90
5352;DHT22;2698;51.454;6.736;2022-08-02T02:37:19;15.90;99.90
5352;DHT22;2698;51.454;6.736;2022-08-02T02:39:49;15.80;99.90
5352;DHT22;2698;51.454;6.736;2022-08-02T02:42:18;15.80;99.90
5352;DHT22;2698;51.454;6.736;2022-08-02T02:44:47;15.80;99.90
5352;DHT22;2698;51.454;6.736;2022-08-02T02:47:16;15.70;99.90
5352;DHT22;2698;51.454;6.736;2022-08-02T02:49:46;15.70;99.90
5352;DHT22;2698;51.454;6.736;2022-08-02T02:52:15;15.70;99.90
5352;DHT22;2698;51.454;6.736;2022-08-02T02:54:43;15.70;99.90
5352;DHT22;2698;51.454;6.736;2022-08-02T02:57:11;15.70;99.90
5352;DHT22;2698;51.454;6.736;2022-08-02T02:59:39;15.70;99.90
5352;DHT22;2698;51.454;6.736;2022-08-02T03:02:06;15.70;99.90
5352;DHT22;2698;51.454;6.736;2022-08-02T03:04:35;15.60;99.90
5352;DHT22;2698;51.454;6.736;2022-08-02T03:07:04;15.60;99.90
5352;DHT22;2698;51.454;6.736;2022-08-02T03:09:31;15.70;99.90
5352;DHT22;2698;51.454;6.736;2022-08-02T03:11:58;15.70;99.90
5352;DHT22;2698;51.454;6.736;2022-08-02T03:14:25;15.60;99.90
5352;DHT22;2698;51.454;6.736;2022-08-02T03:16:53;15.60;99.90
5352;DHT22;2698;51.454;6.736;2022-08-02T03:19:21;15.50;99.90
5352;DHT22;2698;51.454;6.736;2022-08-02T03:21:49;15.50;99.90
5352;DHT22;2698;51.454;6.736;2022-08-02T03:24:17;15.60;99.90
5352;DHT22;2698;51.454;6.736;2022-08-02T03:26:44;15.60;99.90
5352;DHT22;2698;51.454;6.736;2022-08-02T03:29:11;15.60;99.90
5352;DHT22;2698;51.454;6.736;2022-08-02T03:31:39;15.60;99.90
5352;DHT22;2698;51.454;6.736;2022-08-02T03:34:08;15.50;99.90
5352;DHT22;2698;51.454;6.736;2022-08-02T03:36:35;15.50;99.90
5352;DHT22;2698;51.454;6.736;2022-08-02T03:39:03;15.50;99.90
5352;DHT22;2698;51.454;6.736;2022-08-02T03:41:32;15.50;99.90
5352;DHT22;2698;51.454;6.736;2022-08-02T03:44:01;15.40;99.90
5352;DHT22;2698;51.454;6.736;2022-08-02T03:46:28;15.40;99.90
5352;DHT22;2698;51.454;6.736;2022-08-02T03:48:56;15.40;99.90
5352;DHT22;2698;51.454;6.736;2022-08-02T03:51:23;15.40;99.90
5352;DHT22;2698;51.454;6.736;2022-08-02T03:53:50;15.50;99.90
5352;DHT22;2698;51.454;6.736;2022-08-02T03:56:17;15.80;99.90
5352;DHT22;2698;51.454;6.736;2022-08-02T03:58:46;15.90;99.90
5352;DHT22;2698;51.454;6.736;2022-08-02T04:01:13;15.90;99.90
5352;DHT22;2698;51.454;6.736;2022-08-02T04:03:40;16.00;99.90
5352;DHT22;2698;51.454;6.736;2022-08-02T04:06:06;16.00;99.90
5352;DHT22;2698;51.454;6.736;2022-08-02T04:08:33;16.00;99.90
5352;DHT22;2698;51.454;6.736;2022-08-02T04:11:00;16.00;99.90
5352;DHT22;2698;51.454;6.736;2022-08-02T04:13:46;16.00;99.90
5352;DHT22;2698;51.454;6.736;2022-08-02T04:16:19;16.00;99.90
5352;DHT22;2698;51.454;6.736;2022-08-02T04:18:53;16.00;99.90
5352;DHT22;2698;51.454;6.736;2022-08-02T04:21:24;16.10;99.90
5352;DHT22;2698;51.454;6.736;2022-08-02T04:23:52;16.00;99.90
5352;DHT22;2698;51.454;6.736;2022-08-02T04:26:20;16.10;99.90
5352;DHT22;2698;51.454;6.736;2022-08-02T04:28:49;16.20;99.90
5352;DHT22;2698;51.454;6.736;2022-08-02T04:31:16;16.20;99.90
5352;DHT22;2698;51.454;6.736;2022-08-02T04:33:44;16.20;99.90
5352;DHT22;2698;51.454;6.736;2022-08-02T04:36:11;16.20;99.90
5352;DHT22;2698;51.454;6.736;2022-08-02T04:38:39;16.20;99.90
5352;DHT22;2698;51.454;6.736;2022-08-02T04:41:06;16.30;99.90
5352;DHT22;2698;51.454;6.736;2022-08-02T04:43:34;16.30;99.90
5352;DHT22;2698;51.454;6.736;2022-08-02T04:46:02;16.40;99.90
5352;DHT22;2698;51.454;6.736;2022-08-02T04:48:29;16.30;99.90
5352;DHT22;2698;51.454;6.736;2022-08-02T04:50:56;16.40;99.90
5352;DHT22;2698;51.454;6.736;2022-08-02T04:53:23;16.40;99.90
5352;DHT22;2698;51.454;6.736;2022-08-02T04:55:50;16.40;99.90
5352;DHT22;2698;51.454;6.736;2022-08-02T04:58:17;16.40;99.90
5352;DHT22;2698;51.454;6.736;2022-08-02T05:00:44;16.50;99.90
5352;DHT22;2698;51.454;6.736;2022-08-02T05:03:12;16.50;99.90
5352;DHT22;2698;51.454;6.736;2022-08-02T05:05:39;16.60;99.90
5352;DHT22;2698;51.454;6.736;2022-08-02T05:08:06;16.60;99.90
5352;DHT22;2698;51.454;6.736;2022-08-02T05:10:33;16.70;99.90
5352;DHT22;2698;51.454;6.736;2022-08-02T05:13:03;16.80;99.90
5352;DHT22;2698;51.454;6.736;2022-08-02T05:15:30;16.90;99.90
5352;DHT22;2698;51.454;6.736;2022-08-02T05:17:56;16.90;99.90
5352;DHT22;2698;51.454;6.736;2022-08-02T05:20:25;17.00;99.90
5352;DHT22;2698;51.454;6.736;2022-08-02T05:22:52;17.10;99.90
5352;DHT22;2698;51.454;6.736;2022-08-02T05:25:19;17.20;99.90
5352;DHT22;2698;51.454;6.736;2022-08-02T05:27:45;17.40;99.90
5352;DHT22;2698;51.454;6.736;2022-08-02T05:30:12;17.70;99.90
5352;DHT22;2698;51.454;6.736;2022-08-02T05:32:44;17.80;99.90
5352;DHT22;2698;51.454;6.736;2022-08-02T05:35:11;18.00;99.90
5352;DHT22;2698;51.454;6.736;2022-08-02T05:37:39;18.00;99.90
5352;DHT22;2698;51.454;6.736;2022-08-02T05:40:07;18.10;99.90
5352;DHT22;2698;51.454;6.736;2022-08-02T05:42:34;18.10;99.90
5352;DHT22;2698;51.454;6.736;2022-08-02T05:45:02;18.30;99.90
5352;DHT22;2698;51.454;6.736;2022-08-02T05:47:29;18.40;99.90
5352;DHT22;2698;51.454;6.736;2022-08-02T05:49:56;18.70;99.90
5352;DHT22;2698;51.454;6.736;2022-08-02T05:52:25;21.10;99.90
5352;DHT22;2698;51.454;6.736;2022-08-02T05:55:05;22.10;99.90
5352;DHT22;2698;51.454;6.736;2022-08-02T05:57:39;23.30;99.90
5352;DHT22;2698;51.454;6.736;2022-08-02T06:00:10;23.80;99.90
5352;DHT22;2698;51.454;6.736;2022-08-02T06:05:38;24.50;99.90
5352;DHT22;2698;51.454;6.736;2022-08-02T06:08:06;24.20;99.90
5352;DHT22;2698;51.454;6.736;2022-08-02T06:10:36;24.60;99.90
5352;DHT22;2698;51.454;6.736;2022-08-02T06:13:08;24.90;99.90
5352;DHT22;2698;51.454;6.736;2022-08-02T06:15:35;24.70;99.90
5352;DHT22;2698;51.454;6.736;2022-08-02T06:18:03;24.40;99.90
5352;DHT22;2698;51.454;6.736;2022-08-02T06:20:31;24.10;99.90
5352;DHT22;2698;51.454;6.736;2022-08-02T06:23:01;24.10;99.90
5352;DHT22;2698;51.454;6.736;2022-08-02T06:25:29;23.30;99.90
5352;DHT22;2698;51.454;6.736;2022-08-02T06:27:59;23.40;99.90
5352;DHT22;2698;51.454;6.736;2022-08-02T06:30:26;23.60;99.90
5352;DHT22;2698;51.454;6.736;2022-08-02T06:32:53;23.90;99.90
5352;DHT22;2698;51.454;6.736;2022-08-02T06:35:20;24.10;99.90
5352;DHT22;2698;51.454;6.736;2022-08-02T06:37:50;24.20;99.90
5352;DHT22;2698;51.454;6.736;2022-08-02T06:40:24;24.30;99.90
5352;DHT22;2698;51.454;6.736;2022-08-02T06:43:02;24.30;99.90
5352;DHT22;2698;51.454;6.736;2022-08-02T06:45:31;24.10;99.90
5352;DHT22;2698;51.454;6.736;2022-08-02T06:47:58;23.90;99.90
5352;DHT22;2698;51.454;6.736;2022-08-02T06:50:26;23.90;99.90
5352;DHT22;2698;51.454;6.736;2022-08-02T06:52:52;23.50;99.90
5352;DHT22;2698;51.454;6.736;2022-08-02T06:55:19;23.70;99.90
5352;DHT22;2698;51.454;6.736;2022-08-02T06:57:46;24.50;99.90
5352;DHT22;2698;51.454;6.736;2022-08-02T07:00:15;24.70;99.90
5352;DHT22;2698;51.454;6.736;2022-08-02T07:02:42;24.90;99.90
5352;DHT22;2698;51.454;6.736;2022-08-02T07:05:09;25.40;99.90
5352;DHT22;2698;51.454;6.736;2022-08-02T07:07:35;25.20;99.90
5352;DHT22;2698;51.454;6.736;2022-08-02T07:10:03;25.10;99.90
5352;DHT22;2698;51.454;6.736;2022-08-02T07:12:32;24.40;99.90
5352;DHT22;2698;51.454;6.736;2022-08-02T07:15:02;24.50;99.90
5352;DHT22;2698;51.454;6.736;2022-08-02T07:17:30;24.80;99.90
5352;DHT22;2698;51.454;6.736;2022-08-02T07:19:58;25.20;99.90
5352;DHT22;2698;51.454;6.736;2022-08-02T07:22:26;25.20;99.90
5352;DHT22;2698;51.454;6.736;2022-08-02T07:24:53;25.20;99.90
5352;DHT22;2698;51.454;6.736;2022-08-02T07:27:21;24.70;99.90
5352;DHT22;2698;51.454;6.736;2022-08-02T07:29:48;25.20;99.90
5352;DHT22;2698;51.454;6.736;2022-08-02T07:32:15;25.30;99.90
5352;DHT22;2698;51.454;6.736;2022-08-02T07:34:44;26.00;99.90
5352;DHT22;2698;51.454;6.736;2022-08-02T07:37:11;26.20;99.90
5352;DHT22;2698;51.454;6.736;2022-08-02T07:39:38;26.50;99.90
5352;DHT22;2698;51.454;6.736;2022-08-02T07:42:05;26.20;98.70
5352;DHT22;2698;51.454;6.736;2022-08-02T07:44:32;26.30;97.50
5352;DHT22;2698;51.454;6.736;2022-08-02T07:47:00;26.30;98.10
5352;DHT22;2698;51.454;6.736;2022-08-02T07:49:27;26.60;95.80
5352;DHT22;2698;51.454;6.736;2022-08-02T07:51:56;26.60;94.60
5352;DHT22;2698;51.454;6.736;2022-08-02T07:54:23;26.80;92.90
5352;DHT22;2698;51.454;6.736;2022-08-02T07:56:50;26.90;91.50
5352;DHT22;2698;51.454;6.736;2022-08-02T07:59:18;27.20;91.40
5352;DHT22;2698;51.454;6.736;2022-08-02T08:01:45;26.70;89.60
5352;DHT22;2698;51.454;6.736;2022-08-02T08:04:13;26.40;90.90
5352;DHT22;2698;51.454;6.736;2022-08-02T08:06:40;26.40;91.50
5352;DHT22;2698;51.454;6.736;2022-08-02T08:09:09;26.40;91.90
5352;DHT22;2698;51.454;6.736;2022-08-02T08:11:36;26.30;92.50
5352;DHT22;2698;51.454;6.736;2022-08-02T08:14:03;26.60;92.20
5352;DHT22;2698;51.454;6.736;2022-08-02T08:16:30;26.40;91.60
5352;DHT22;2698;51.454;6.736;2022-08-02T08:18:57;26.40;91.20
5352;DHT22;2698;51.454;6.736;2022-08-02T08:21:24;26.70;90.90
5352;DHT22;2698;51.454;6.736;2022-08-02T08:23:51;26.40;90.80
5352;DHT22;2698;51.454;6.736;2022-08-02T08:26:19;26.60;91.10
5352;DHT22;2698;51.454;6.736;2022-08-02T08:28:46;26.60;90.20
5352;DHT22;2698;51.454;6.736;2022-08-02T08:31:13;26.60;90.40
5352;DHT22;2698;51.454;6.736;2022-08-02T08:33:39;26.60;90.40
5352;DHT22;2698;51.454;6.736;2022-08-02T08:36:07;26.30;91.90
5352;DHT22;2698;51.454;6.736;2022-08-02T08:38:33;25.70;92.30
5352;DHT22;2698;51.454;6.736;2022-08-02T08:41:00;26.00;93.10
5352;DHT22;2698;51.454;6.736;2022-08-02T08:43:29;26.30;91.00
5352;DHT22;2698;51.454;6.736;2022-08-02T08:45:55;26.30;91.00
5352;DHT22;2698;51.454;6.736;2022-08-02T08:48:23;26.60;91.10
5352;DHT22;2698;51.454;6.736;2022-08-02T08:51:00;26.40;89.50
5352;DHT22;2698;51.454;6.736;2022-08-02T08:53:30;26.50;91.00
5352;DHT22;2698;51.454;6.736;2022-08-02T08:56:01;26.70;90.80
5352;DHT22;2698;51.454;6.736;2022-08-02T08:58:30;26.90;90.40
5352;DHT22;2698;51.454;6.736;2022-08-02T09:00:56;26.70;90.90
5352;DHT22;2698;51.454;6.736;2022-08-02T09:03:24;26.80;90.80
5352;DHT22;2698;51.454;6.736;2022-08-02T09:05:50;26.90;89.30
5352;DHT22;2698;51.454;6.736;2022-08-02T09:08:17;26.90;90.10
5352;DHT22;2698;51.454;6.736;2022-08-02T09:10:46;27.00;90.50
5352;DHT22;2698;51.454;6.736;2022-08-02T09:13:15;26.90;89.60
5352;DHT22;2698;51.454;6.736;2022-08-02T09:15:44;26.90;89.50
5352;DHT22;2698;51.454;6.736;2022-08-02T09:18:12;27.10;90.00
5352;DHT22;2698;51.454;6.736;2022-08-02T09:20:54;27.20;86.30
5352;DHT22;2698;51.454;6.736;2022-08-02T09:23:24;27.10;83.40
5352;DHT22;2698;51.454;6.736;2022-08-02T09:25:58;27.40;86.20
5352;DHT22;2698;51.454;6.736;2022-08-02T09:28:26;27.40;82.80
5352;DHT22;2698;51.454;6.736;2022-08-02T09:31:01;27.40;83.70
5352;DHT22;2698;51.454;6.736;2022-08-02T09:33:28;27.40;83.50
5352;DHT22;2698;51.454;6.736;2022-08-02T09:36:00;27.50;83.00
5352;DHT22;2698;51.454;6.736;2022-08-02T09:38:27;27.60;81.30
5352;DHT22;2698;51.454;6.736;2022-08-02T09:40:54;27.40;81.10
5352;DHT22;2698;51.454;6.736;2022-08-02T09:43:34;27.40;80.70
5352;DHT22;2698;51.454;6.736;2022-08-02T09:46:13;27.60;81.80
5352;DHT22;2698;51.454;6.736;2022-08-02T09:48:47;27.70;82.50
5352;DHT22;2698;51.454;6.736;2022-08-02T09:51:17;27.90;80.20
5352;DHT22;2698;51.454;6.736;2022-08-02T09:53:46;28.20;78.10
5352;DHT22;2698;51.454;6.736;2022-08-02T09:56:13;28.30;76.40
5352;DHT22;2698;51.454;6.736;2022-08-02T09:58:41;28.40;76.60
5352;DHT22;2698;51.454;6.736;2022-08-02T10:01:08;28.30;76.30
5352;DHT22;2698;51.454;6.736;2022-08-02T10:03:36;28.00;74.80
5352;DHT22;2698;51.454;6.736;2022-08-02T10:06:03;27.80;75.60
5352;DHT22;2698;51.454;6.736;2022-08-02T10:08:31;27.80;73.10
5352;DHT22;2698;51.454;6.736;2022-08-02T10:10:58;27.50;73.80
5352;DHT22;2698;51.454;6.736;2022-08-02T10:13:30;27.80;74.60
5352;DHT22;2698;51.454;6.736;2022-08-02T10:15:57;28.20;72.30
5352;DHT22;2698;51.454;6.736;2022-08-02T10:18:24;28.30;72.00
5352;DHT22;2698;51.454;6.736;2022-08-02T10:20:55;27.90;69.70
5352;DHT22;2698;51.454;6.736;2022-08-02T10:23:25;28.10;71.20
5352;DHT22;2698;51.454;6.736;2022-08-02T10:25:53;28.40;68.70
5352;DHT22;2698;51.454;6.736;2022-08-02T10:28:25;28.30;68.20
5352;DHT22;2698;51.454;6.736;2022-08-02T10:30:54;28.20;70.00
5352;DHT22;2698;51.454;6.736;2022-08-02T10:33:22;28.50;67.80
5352;DHT22;2698;51.454;6.736;2022-08-02T10:35:54;28.40;67.30
5352;DHT22;2698;51.454;6.736;2022-08-02T10:38:23;28.40;66.50
5352;DHT22;2698;51.454;6.736;2022-08-02T10:40:52;28.90;66.00
5352;DHT22;2698;51.454;6.736;2022-08-02T10:43:40;29.00;65.30
5352;DHT22;2698;51.454;6.736;2022-08-02T10:46:22;28.90;62.80
5352;DHT22;2698;51.454;6.736;2022-08-02T10:49:05;28.80;61.70
5352;DHT22;2698;51.454;6.736;2022-08-02T10:54:35;28.80;61.10
5352;DHT22;2698;51.454;6.736;2022-08-02T10:57:03;28.90;58.50
5352;DHT22;2698;51.454;6.736;2022-08-02T10:59:39;29.00;58.20
5352;DHT22;2698;51.454;6.736;2022-08-02T11:02:06;29.50;56.70
5352;DHT22;2698;51.454;6.736;2022-08-02T11:05:00;29.60;56.60
5352;DHT22;2698;51.454;6.736;2022-08-02T11:07:33;29.30;57.40
5352;DHT22;2698;51.454;6.736;2022-08-02T11:10:27;29.50;56.40
5352;DHT22;2698;51.454;6.736;2022-08-02T11:13:04;29.20;56.90
5352;DHT22;2698;51.454;6.736;2022-08-02T11:15:48;29.80;56.90
5352;DHT22;2698;51.454;6.736;2022-08-02T11:18:15;29.50;55.30
5352;DHT22;2698;51.454;6.736;2022-08-02T11:20:42;29.30;53.20
5352;DHT22;2698;51.454;6.736;2022-08-02T11:23:35;29.40;52.30
5352;DHT22;2698;51.454;6.736;2022-08-02T11:26:41;29.10;51.80
5352;DHT22;2698;51.454;6.736;2022-08-02T11:29:09;29.20;51.10
5352;DHT22;2698;51.454;6.736;2022-08-02T11:31:40;29.20;52.00
5352;DHT22;2698;51.454;6.736;2022-08-02T11:34:08;29.60;51.80
5352;DHT22;2698;51.454;6.736;2022-08-02T11:36:46;29.90;51.20
5352;DHT22;2698;51.454;6.736;2022-08-02T11:39:14;29.80;50.30
5352;DHT22;2698;51.454;6.736;2022-08-02T11:41:48;29.60;48.90
5352;DHT22;2698;51.454;6.736;2022-08-02T11:44:15;29.50;48.70
5352;DHT22;2698;51.454;6.736;2022-08-02T11:46:42;29.50;48.90
5352;DHT22;2698;51.454;6.736;2022-08-02T11:49:17;29.90;48.80
5352;DHT22;2698;51.454;6.736;2022-08-02T11:51:54;29.60;47.30
5352;DHT22;2698;51.454;6.736;2022-08-02T11:54:23;29.90;47.00
5352;DHT22;2698;51.454;6.736;2022-08-02T11:56:51;29.70;45.00
5352;DHT22;2698;51.454;6.736;2022-08-02T11:59:18;29.70;42.40
5352;DHT22;2698;51.454;6.736;2022-08-02T12:01:45;29.60;43.40
5352;DHT22;2698;51.454;6.736;2022-08-02T12:04:16;29.30;44.50
5352;DHT22;2698;51.454;6.736;2022-08-02T12:06:53;29.10;45.10
5352;DHT22;2698;51.454;6.736;2022-08-02T12:09:19;29.00;45.70
5352;DHT22;2698;51.454;6.736;2022-08-02T12:11:48;28.80;47.10
5352;DHT22;2698;51.454;6.736;2022-08-02T12:14:16;28.80;47.90
5352;DHT22;2698;51.454;6.736;2022-08-02T12:16:44;28.80;48.70
5352;DHT22;2698;51.454;6.736;2022-08-02T12:19:28;28.90;47.80
5352;DHT22;2698;51.454;6.736;2022-08-02T12:22:13;29.10;47.90
5352;DHT22;2698;51.454;6.736;2022-08-02T12:24:42;29.40;47.70
5352;DHT22;2698;51.454;6.736;2022-08-02T12:27:26;29.40;47.20
5352;DHT22;2698;51.454;6.736;2022-08-02T12:30:00;29.50;47.10
5352;DHT22;2698;51.454;6.736;2022-08-02T12:32:28;29.80;46.90
5352;DHT22;2698;51.454;6.736;2022-08-02T12:35:03;29.50;45.50
5352;DHT22;2698;51.454;6.736;2022-08-02T12:37:30;29.70;46.20
5352;DHT22;2698;51.454;6.736;2022-08-02T12:39:57;29.50;45.90
5352;DHT22;2698;51.454;6.736;2022-08-02T12:42:24;29.20;45.10
5352;DHT22;2698;51.454;6.736;2022-08-02T12:44:53;29.20;45.70
5352;DHT22;2698;51.454;6.736;2022-08-02T12:47:21;29.20;46.40
5352;DHT22;2698;51.454;6.736;2022-08-02T12:50:12;29.40;46.50
5352;DHT22;2698;51.454;6.736;2022-08-02T12:52:39;29.30;45.70
5352;DHT22;2698;51.454;6.736;2022-08-02T12:55:21;29.40;46.20
5352;DHT22;2698;51.454;6.736;2022-08-02T12:57:52;29.40;45.50
5352;DHT22;2698;51.454;6.736;2022-08-02T13:00:24;29.40;46.50
5352;DHT22;2698;51.454;6.736;2022-08-02T13:02:53;29.40;45.40
5352;DHT22;2698;51.454;6.736;2022-08-02T13:05:20;29.40;46.00
5352;DHT22;2698;51.454;6.736;2022-08-02T13:07:47;29.20;44.90
5352;DHT22;2698;51.454;6.736;2022-08-02T13:10:14;29.40;45.20
5352;DHT22;2698;51.454;6.736;2022-08-02T13:12:41;29.50;44.70
5352;DHT22;2698;51.454;6.736;2022-08-02T13:15:09;29.50;44.30
5352;DHT22;2698;51.454;6.736;2022-08-02T13:17:36;29.50;43.80
5352;DHT22;2698;51.454;6.736;2022-08-02T13:20:06;29.50;43.10
5352;DHT22;2698;51.454;6.736;2022-08-02T13:22:33;29.70;43.10
5352;DHT22;2698;51.454;6.736;2022-08-02T13:25:00;29.70;42.50
5352;DHT22;2698;51.454;6.736;2022-08-02T13:27:27;29.80;42.90
5352;DHT22;2698;51.454;6.736;2022-08-02T13:29:55;29.60;42.00
5352;DHT22;2698;51.454;6.736;2022-08-02T13:32:23;29.70;42.40
5352;DHT22;2698;51.454;6.736;2022-08-02T13:34:50;29.70;42.20
5352;DHT22;2698;51.454;6.736;2022-08-02T13:37:18;29.80;41.80
5352;DHT22;2698;51.454;6.736;2022-08-02T13:39:46;29.90;42.10
5352;DHT22;2698;51.454;6.736;2022-08-02T13:42:13;30.20;42.80
5352;DHT22;2698;51.454;6.736;2022-08-02T13:44:40;29.80;42.00
5352;DHT22;2698;51.454;6.736;2022-08-02T13:47:07;29.90;42.50
5352;DHT22;2698;51.454;6.736;2022-08-02T13:49:36;29.80;42.20
5352;DHT22;2698;51.454;6.736;2022-08-02T13:52:03;29.90;42.20
5352;DHT22;2698;51.454;6.736;2022-08-02T13:54:31;30.10;42.50
5352;DHT22;2698;51.454;6.736;2022-08-02T13:56:58;30.00;41.20
5352;DHT22;2698;51.454;6.736;2022-08-02T13:59:25;29.90;42.20
5352;DHT22;2698;51.454;6.736;2022-08-02T14:01:52;29.80;42.00
5352;DHT22;2698;51.454;6.736;2022-08-02T14:04:19;29.90;42.20
5352;DHT22;2698;51.454;6.736;2022-08-02T14:06:46;29.90;41.60
5352;DHT22;2698;51.454;6.736;2022-08-02T14:09:13;29.90;41.40
5352;DHT22;2698;51.454;6.736;2022-08-02T14:11:41;29.80;41.10
5352;DHT22;2698;51.454;6.736;2022-08-02T14:14:08;29.70;40.60
5352;DHT22;2698;51.454;6.736;2022-08-02T14:16:34;29.70;40.70
5352;DHT22;2698;51.454;6.736;2022-08-02T14:19:01;29.90;40.80
5352;DHT22;2698;51.454;6.736;2022-08-02T14:21:29;30.00;41.50
5352;DHT22;2698;51.454;6.736;2022-08-02T14:23:56;30.10;40.60
5352;DHT22;2698;51.454;6.736;2022-08-02T14:26:23;29.80;41.40
5352;DHT22;2698;51.454;6.736;2022-08-02T14:28:51;29.90;40.50
5352;DHT22;2698;51.454;6.736;2022-08-02T14:31:18;29.60;40.60
5352;DHT22;2698;51.454;6.736;2022-08-02T14:33:45;29.80;40.30
5352;DHT22;2698;51.454;6.736;2022-08-02T14:36:11;30.00;39.00
5352;DHT22;2698;51.454;6.736;2022-08-02T14:38:38;30.00;39.10
5352;DHT22;2698;51.454;6.736;2022-08-02T14:41:05;29.90;39.10
5352;DHT22;2698;51.454;6.736;2022-08-02T14:43:32;29.90;39.20
5352;DHT22;2698;51.454;6.736;2022-08-02T14:46:17;29.80;39.10
5352;DHT22;2698;51.454;6.736;2022-08-02T14:48:44;29.80;39.20
5352;DHT22;2698;51.454;6.736;2022-08-02T14:51:11;29.90;40.10
5352;DHT22;2698;51.454;6.736;2022-08-02T14:53:39;29.50;40.10
5352;DHT22;2698;51.454;6.736;2022-08-02T14:56:06;29.60;40.10
5352;DHT22;2698;51.454;6.736;2022-08-02T14:58:33;29.50;40.40
5352;DHT22;2698;51.454;6.736;2022-08-02T15:00:59;29.50;40.10
5352;DHT22;2698;51.454;6.736;2022-08-02T15:03:28;29.40;39.80
5352;DHT22;2698;51.454;6.736;2022-08-02T15:05:55;29.60;40.30
5352;DHT22;2698;51.454;6.736;2022-08-02T15:08:21;29.70;39.90
5352;DHT22;2698;51.454;6.736;2022-08-02T15:10:48;29.60;39.10
5352;DHT22;2698;51.454;6.736;2022-08-02T15:13:15;29.70;38.90
5352;DHT22;2698;51.454;6.736;2022-08-02T15:15:42;29.70;38.80
5352;DHT22;2698;51.454;6.736;2022-08-02T15:18:09;29.60;37.90
5352;DHT22;2698;51.454;6.736;2022-08-02T15:20:37;29.50;38.10
5352;DHT22;2698;51.454;6.736;2022-08-02T15:23:04;29.50;38.80
5352;DHT22;2698;51.454;6.736;2022-08-02T15:25:30;29.60;39.20
5352;DHT22;2698;51.454;6.736;2022-08-02T15:27:57;29.50;38.30
5352;DHT22;2698;51.454;6.736;2022-08-02T15:30:24;29.60;38.60
5352;DHT22;2698;51.454;6.736;2022-08-02T15:32:51;29.40;37.20
5352;DHT22;2698;51.454;6.736;2022-08-02T15:35:18;29.40;37.90
5352;DHT22;2698;51.454;6.736;2022-08-02T15:37:46;29.20;37.20
5352;DHT22;2698;51.454;6.736;2022-08-02T15:40:13;29.20;37.30
5352;DHT22;2698;51.454;6.736;2022-08-02T15:42:40;29.20;38.30
5352;DHT22;2698;51.454;6.736;2022-08-02T15:45:08;29.20;38.10
5352;DHT22;2698;51.454;6.736;2022-08-02T15:47:35;29.20;38.20
5352;DHT22;2698;51.454;6.736;2022-08-02T15:50:03;29.10;38.20
5352;DHT22;2698;51.454;6.736;2022-08-02T15:52:30;29.00;37.60
5352;DHT22;2698;51.454;6.736;2022-08-02T15:54:58;29.00;38.50
5352;DHT22;2698;51.454;6.736;2022-08-02T15:57:25;28.90;38.60
5352;DHT22;2698;51.454;6.736;2022-08-02T15:59:52;28.90;38.80
5352;DHT22;2698;51.454;6.736;2022-08-02T16:02:19;28.90;38.80
5352;DHT22;2698;51.454;6.736;2022-08-02T16:04:47;28.70;39.20
5352;DHT22;2698;51.454;6.736;2022-08-02T16:07:14;28.80;39.60
5352;DHT22;2698;51.454;6.736;2022-08-02T16:09:41;28.80;39.30
5352;DHT22;2698;51.454;6.736;2022-08-02T16:12:09;28.80;39.10
5352;DHT22;2698;51.454;6.736;2022-08-02T16:14:36;28.70;39.30
5352;DHT22;2698;51.454;6.736;2022-08-02T16:17:03;28.80;39.50
5352;DHT22;2698;51.454;6.736;2022-08-02T16:19:30;28.90;39.70
5352;DHT22;2698;51.454;6.736;2022-08-02T16:21:59;28.90;39.30